Weather History for K2I0 - January, 2014

Change the Weather History Date:

Monday, January 27, 2014

  Actual Average (KOWB) Record (KOWB)
Temperature  
Mean Temperature 31 °F -  
Max Temperature 49 °F 41 °F 70 °F (1944)
Min Temperature 12 °F 23 °F -10 °F (1936)
Degree Days  
Heating Degree Days 34    
Moisture  
Dew Point 6 °F    
Average Humidity 52    
Maximum Humidity 76    
Minimum Humidity 39    
Precipitation  
Precipitation 0.00 in - - ()
Sea Level Pressure  
Sea Level Pressure 30.26 in    
Wind  
Wind Speed 17 mph (North)    
Max Wind Speed 34 mph    
Max Gust Speed 46 mph    
Visibility 10 miles    
Events      
Averages and records for this station are not official NWS values.
T = Trace of Precipitation, MM = Missing Value Source: NWS Daily Summary

Daily Weather History Graph

Daily Weather History Graph

Search for Another Location

Airport or City:

Trip Planner

Search our weather history database for the weather conditions in past years. The results will help you decide how hot, cold, wet, or windy it might be!

Date:

Astronomy

Jan. 27, 2014 Rise Set
Actual Time 6:56 AM CST 5:08 PM CST
Civil Twilight 6:28 AM CST 5:36 PM CST
Nautical Twilight 5:57 AM CST 6:07 PM CST
Astronomical Twilight 5:26 AM CST 6:38 PM CST
Moon 3:36 AM CST (1/27) 1:55 PM CST (1/27)
Length of Visible Light 11h 07m
Length of Day
10h 11m
Waning Crescent, 14% of the Moon is Illuminated
Jan 27
Waning Crescent
Jan 30
New
Feb 6
First Quarter
Feb 14
Full
Feb 22
Last Quarter

Hourly Weather History & Observations

Time (CST) Temp. Windchill Dew Point Humidity Pressure Visibility Wind Dir Wind Speed Gust Speed Precip Events Conditions
12:15 AM 49.3 °F - 36.7 °F 62% 29.76 in 10.0 mi West 11.5 mph - N/A   Overcast
12:35 AM 49.1 °F - 36.7 °F 62% 29.77 in 10.0 mi West 9.2 mph - N/A   Overcast
12:55 AM 42.4 °F 31.1 °F 30.6 °F 63% 29.83 in 10.0 mi North 34.5 mph 46.0 mph N/A   Overcast
1:15 AM 36.9 °F 24.2 °F 28.4 °F 71% 29.88 in 10.0 mi North 29.9 mph 42.6 mph N/A   Mostly Cloudy
1:35 AM 35.1 °F 23.0 °F 28.0 °F 76% 29.91 in 10.0 mi North 24.2 mph 34.5 mph N/A   Scattered Clouds
1:55 AM 33.8 °F 21.6 °F 26.4 °F 74% 29.94 in 10.0 mi North 23.0 mph 34.5 mph N/A   Overcast
2:15 AM 32.0 °F 17.9 °F 24.3 °F 73% 29.97 in 10.0 mi North 28.8 mph 38.0 mph N/A   Mostly Cloudy
2:35 AM 30.2 °F 15.4 °F 20.1 °F 66% 29.99 in 10.0 mi North 28.8 mph 35.7 mph N/A   Mostly Cloudy
2:55 AM 29.3 °F 16.6 °F 19.0 °F 66% 30.02 in 10.0 mi North 19.6 mph 38.0 mph N/A   Scattered Clouds
3:15 AM 28.8 °F 14.9 °F 19.2 °F 68% 30.03 in 10.0 mi North 23.0 mph 28.8 mph N/A   Mostly Cloudy
3:35 AM 28.0 °F 14.6 °F 18.1 °F 66% 30.05 in 10.0 mi North 20.7 mph 26.5 mph N/A   Mostly Cloudy
3:55 AM 27.5 °F 15.0 °F 17.2 °F 65% 30.06 in 10.0 mi North 17.3 mph 32.2 mph N/A   Mostly Cloudy
4:15 AM 27.3 °F 16.1 °F 17.6 °F 67% 30.07 in 10.0 mi NNW 13.8 mph - N/A   Mostly Cloudy
4:35 AM 25.5 °F 12.0 °F 8.8 °F 49% 30.09 in 10.0 mi North 18.4 mph 26.5 mph N/A   Overcast
4:55 AM 24.8 °F 10.7 °F 9.3 °F 52% 30.10 in 10.0 mi North 19.6 mph 28.8 mph N/A   Overcast
5:15 AM 24.3 °F 10.0 °F 9.1 °F 53% 30.12 in 10.0 mi North 19.6 mph 25.3 mph N/A   Overcast
5:35 AM 23.9 °F 9.9 °F 8.1 °F 51% 30.14 in 10.0 mi North 18.4 mph 25.3 mph N/A   Overcast
5:55 AM 23.9 °F 10.3 °F 7.3 °F 49% 30.16 in 10.0 mi NNW 17.3 mph 23.0 mph N/A   Overcast
6:15 AM 23.0 °F 9.2 °F 5.5 °F 47% 30.17 in 10.0 mi NNW 17.3 mph 25.3 mph N/A   Overcast
6:35 AM 22.6 °F 9.6 °F 7.0 °F 51% 30.18 in 10.0 mi North 15.0 mph 21.9 mph N/A   Overcast
6:55 AM 21.9 °F 6.9 °F 8.6 °F 57% 30.20 in 10.0 mi North 19.6 mph 23.0 mph N/A   Overcast
7:15 AM 20.3 °F 4.8 °F 1.0 °F 43% 30.22 in 10.0 mi NNW 19.6 mph 25.3 mph N/A   Overcast
7:35 AM 19.2 °F 4.7 °F 1.4 °F 46% 30.24 in 10.0 mi NNW 16.1 mph 23.0 mph N/A   Overcast
7:55 AM 18.1 °F 2.0 °F 1.0 °F 47% 30.24 in 10.0 mi NNW 19.6 mph 27.6 mph N/A   Overcast
8:15 AM 17.8 °F 1.5 °F 1.6 °F 49% 30.27 in 10.0 mi NNW 19.6 mph 25.3 mph N/A   Overcast
8:35 AM 17.6 °F 1.3 °F -0.9 °F 44% 30.29 in 10.0 mi North 19.6 mph 26.5 mph N/A   Mostly Cloudy
8:55 AM 17.8 °F 2.4 °F 0.7 °F 47% 30.31 in 10.0 mi North 17.3 mph 25.3 mph N/A   Mostly Cloudy
9:15 AM 17.2 °F 0.8 °F -1.1 °F 45% 30.31 in 10.0 mi North 19.6 mph 23.0 mph N/A   Scattered Clouds
9:35 AM 18.1 °F 2.4 °F -0.2 °F 45% 30.32 in 10.0 mi NNW 18.4 mph 23.0 mph N/A   Clear
9:55 AM 17.4 °F 1.9 °F -0.9 °F 45% 30.33 in 10.0 mi NNW 17.3 mph 20.7 mph N/A   Scattered Clouds
10:15 AM 18.1 °F 4.4 °F -0.6 °F 44% 30.34 in 10.0 mi NNW 13.8 mph - N/A   Clear
10:35 AM 19.6 °F 5.7 °F 0.3 °F 43% 30.34 in 10.0 mi North 15.0 mph 20.7 mph N/A   Clear
10:55 AM 19.9 °F 7.3 °F 0.3 °F 42% 30.33 in 10.0 mi NNE 12.7 mph 19.6 mph N/A   Clear
11:15 AM 20.8 °F 8.4 °F 0.7 °F 42% 30.34 in 10.0 mi NNE 12.7 mph - N/A   Clear
11:35 AM 20.3 °F 7.2 °F 2.1 °F 45% 30.33 in 10.0 mi NNE 13.8 mph 18.4 mph N/A   Clear
11:55 AM 21.2 °F 10.1 °F 1.2 °F 42% 30.33 in 10.0 mi North 10.4 mph 21.9 mph N/A   Clear
12:15 PM 20.3 °F 8.3 °F 1.0 °F 43% 30.32 in 10.0 mi North 11.5 mph 16.1 mph N/A   Clear
12:35 PM 20.3 °F 7.7 °F 0.3 °F 42% 30.31 in 10.0 mi North 12.7 mph 18.4 mph N/A   Clear
12:55 PM 19.8 °F 6.5 °F 0.9 °F 44% 30.32 in 10.0 mi NNW 13.8 mph - N/A   Clear
1:15 PM 19.8 °F 5.0 °F -0.9 °F 40% 30.32 in 10.0 mi North 17.3 mph 21.9 mph N/A   Clear
1:35 PM 19.6 °F 4.7 °F -1.8 °F 39% 30.31 in 10.0 mi North 17.3 mph 21.9 mph N/A   Clear
1:55 PM 20.5 °F 6.4 °F -0.8 °F 40% 30.30 in 10.0 mi North 16.1 mph 20.7 mph N/A   Clear
2:15 PM 20.5 °F 10.0 °F 0.1 °F 41% 30.31 in 10.0 mi NNE 9.2 mph 15.0 mph N/A   Clear
2:35 PM 20.3 °F 6.6 °F 0.7 °F 43% 30.32 in 10.0 mi North 15.0 mph 18.4 mph N/A   Clear
2:55 PM 19.8 °F 9.1 °F 0.5 °F 43% 30.32 in 10.0 mi North 9.2 mph 19.6 mph N/A   Clear
3:15 PM 20.1 °F 6.9 °F 1.6 °F 45% 30.33 in 10.0 mi North 13.8 mph 17.3 mph N/A   Clear
3:35 PM 19.6 °F 6.2 °F 0.3 °F 43% 30.34 in 10.0 mi North 13.8 mph - N/A   Scattered Clouds
3:55 PM 19.4 °F 5.5 °F 0.7 °F 44% 30.35 in 10.0 mi North 15.0 mph 18.4 mph N/A   Scattered Clouds
4:15 PM 19.0 °F 8.2 °F -0.0 °F 43% 30.35 in 10.0 mi NNW 9.2 mph - N/A   Clear
4:35 PM 19.4 °F 9.5 °F 0.5 °F 44% 30.35 in 10.0 mi North 8.1 mph - N/A   Clear
4:55 PM 19.8 °F 8.3 °F 0.9 °F 44% 30.35 in 10.0 mi North 10.4 mph 16.1 mph N/A   Clear
5:15 PM 18.7 °F 6.3 °F 0.7 °F 46% 30.36 in 10.0 mi North 11.5 mph - N/A   Clear
5:35 PM 17.8 °F 4.6 °F 1.6 °F 49% 30.37 in 10.0 mi North 12.7 mph - N/A   Clear
5:55 PM 17.1 °F 5.0 °F 0.7 °F 49% 30.38 in 10.0 mi NNW 10.4 mph 16.1 mph N/A   Clear
6:15 PM 16.7 °F 3.2 °F 1.9 °F 52% 30.39 in 10.0 mi North 12.7 mph - N/A   Clear
6:35 PM 16.5 °F 4.3 °F 1.2 °F 51% 30.40 in 10.0 mi North 10.4 mph - N/A   Clear
6:55 PM 16.3 °F 4.9 °F 1.0 °F 51% 30.41 in 10.0 mi North 9.2 mph - N/A   Clear
7:15 PM 15.8 °F 2.1 °F 1.8 °F 54% 30.41 in 10.0 mi NNW 12.7 mph 16.1 mph N/A   Clear
7:35 PM 15.8 °F 2.7 °F 1.2 °F 53% 30.41 in 10.0 mi North 11.5 mph - N/A   Clear
7:55 PM 15.8 °F 2.1 °F 0.9 °F 52% 30.42 in 10.0 mi NNW 12.7 mph - N/A   Clear
8:15 PM 16.0 °F 3.6 °F 1.4 °F 53% 30.43 in 10.0 mi North 10.4 mph - N/A   Clear
8:35 PM 15.8 °F 3.4 °F 0.9 °F 52% 30.43 in 10.0 mi North 10.4 mph - N/A   Clear
8:55 PM 15.8 °F 2.7 °F 0.3 °F 51% 30.44 in 10.0 mi North 11.5 mph - N/A   Clear
9:15 PM 15.8 °F 2.7 °F 1.0 °F 52% 30.45 in 10.0 mi North 11.5 mph - N/A   Clear
9:35 PM 15.4 °F 3.8 °F 2.1 °F 56% 30.45 in 10.0 mi NNE 9.2 mph - N/A   Clear
9:55 PM 14.9 °F 2.3 °F 1.8 °F 56% 30.45 in 10.0 mi NE 10.4 mph - N/A   Scattered Clouds
10:15 PM 14.9 °F 0.9 °F 1.9 °F 57% 30.45 in 10.0 mi NNE 12.7 mph - N/A   Scattered Clouds
10:35 PM 14.7 °F 1.4 °F 1.6 °F 56% 30.44 in 10.0 mi NNE 11.5 mph - N/A   Clear
10:55 PM 14.0 °F -0.2 °F 1.0 °F 56% 30.44 in 10.0 mi NNE 12.7 mph - N/A   Clear
11:15 PM 13.8 °F -1.1 °F 1.2 °F 57% 30.45 in 10.0 mi NNE 13.8 mph - N/A   Clear
11:35 PM 13.5 °F -1.5 °F 1.0 °F 58% 30.46 in 10.0 mi NNE 13.8 mph - N/A   Clear
11:55 PM 12.7 °F -3.0 °F -0.4 °F 56% 30.47 in 10.0 mi NNE 15.0 mph - N/A   Clear